Time;durP1;ratioP1;P1;durP2;ratioP2;P2;SDS_P1;SDS_P2;PMS_P1;PMS_P2;Temp;Humidity;BMP_temperature;BMP_pressure;BME280_temperature;BME280_humidity;BME280_pressure;Samples;Min_cycle;Max_cycle;Signal;HPM_P1;HPM_P2
2022/04/24 00:00:00;;;;;;;13.70;9.20;;;;;;;21.87;33.41;97586.66;343475;28;1616;-69
2022/04/24 00:00:12;;;;;;;12.15;9.55;;;;;;;21.86;33.15;97583.19;343549;28;1079;-68
2022/04/24 00:00:24;;;;;;;12.20;9.55;;;;;;;21.84;33.32;97587.84;343375;28;1064;-68
2022/04/24 00:00:36;;;;;;;11.88;9.43;;;;;;;21.87;33.09;97587.50;342211;28;1180;-67
2022/04/24 00:00:49;;;;;;;12.23;9.10;;;;;;;21.92;33.16;97590.44;341702;28;2266;-68
2022/04/24 00:01:01;;;;;;;12.20;9.10;;;;;;;21.94;33.02;97587.63;342797;28;1309;-69
2022/04/24 00:01:13;;;;;;;12.02;8.98;;;;;;;21.91;33.33;97588.81;343305;28;1267;-68
2022/04/24 00:01:25;;;;;;;12.18;8.95;;;;;;;21.99;33.21;97584.47;343342;28;1302;-68
2022/04/24 00:01:38;;;;;;;12.48;9.18;;;;;;;22.00;33.21;97584.28;342503;28;2427;-68
2022/04/24 00:01:50;;;;;;;12.18;9.13;;;;;;;22.00;33.14;97586.13;341299;28;2400;-67
2022/04/24 00:02:02;;;;;;;12.07;8.93;;;;;;;22.00;33.24;97586.94;341845;28;1969;-68
2022/04/24 00:02:15;;;;;;;11.55;8.90;;;;;;;22.00;33.25;97586.94;342041;28;1083;-69
2022/04/24 00:02:27;;;;;;;10.95;8.90;;;;;;;22.03;33.14;97591.06;341900;28;1726;-69
2022/04/24 00:02:40;;;;;;;11.10;8.95;;;;;;;21.99;33.39;97590.56;342135;28;1096;-69
2022/04/24 00:02:52;;;;;;;11.90;8.93;;;;;;;22.00;33.29;97586.13;341209;28;2392;-68
2022/04/24 00:03:04;;;;;;;12.05;9.10;;;;;;;21.96;33.31;97590.13;342041;28;1931;-68
2022/04/24 00:03:17;;;;;;;11.57;8.93;;;;;;;21.96;33.26;97584.81;342177;28;1202;-69
2022/04/24 00:03:29;;;;;;;11.88;8.95;;;;;;;21.96;33.26;97584.81;342085;28;1260;-69
2022/04/24 00:03:42;;;;;;;11.90;9.20;;;;;;;21.96;33.00;97579.53;342181;28;1028;-69
2022/04/24 00:03:54;;;;;;;12.35;9.32;;;;;;;21.91;33.17;97583.53;342189;28;2560;-68
2022/04/24 00:04:08;;;;;;;12.45;9.35;;;;;;;21.89;33.59;97582.03;343358;28;2032;-69
2022/04/24 00:04:20;;;;;;;12.98;9.48;;;;;;;21.84;33.65;97574.63;343664;28;1026;-67
2022/04/24 00:04:32;;;;;;;12.65;9.43;;;;;;;21.85;33.37;97581.56;343365;28;1329;-67
2022/04/24 00:04:44;;;;;;;11.60;9.20;;;;;;;21.84;33.37;97582.53;342193;28;1291;-67
2022/04/24 00:04:56;;;;;;;11.50;9.38;;;;;;;21.88;33.05;97583.84;341334;28;1489;-67
2022/04/24 00:05:08;;;;;;;11.93;9.80;;;;;;;21.89;33.59;97587.31;341987;28;1930;-67
2022/04/24 00:05:20;;;;;;;12.10;9.70;;;;;;;21.88;33.15;97581.22;342201;28;1253;-67
2022/04/24 00:05:32;;;;;;;12.10;9.40;;;;;;;21.87;33.33;97576.94;342043;28;1344;-67
2022/04/24 00:05:44;;;;;;;13.07;8.95;;;;;;;21.89;33.12;97580.22;342079;28;1275;-68
2022/04/24 00:05:56;;;;;;;13.30;8.90;;;;;;;21.91;33.19;97583.53;341735;28;1537;-68
2022/04/24 00:06:08;;;;;;;13.43;9.02;;;;;;;21.90;33.15;97581.84;341412;28;1440;-68
2022/04/24 00:06:20;;;;;;;11.02;8.85;;;;;;;21.88;33.09;97589.13;341036;29;1183;-68
2022/04/24 00:06:32;;;;;;;11.13;8.77;;;;;;;21.89;33.21;97584.66;341763;28;1362;-67
2022/04/24 00:06:46;;;;;;;11.43;8.63;;;;;;;21.88;33.35;97580.38;342577;28;1035;-69
2022/04/24 00:06:59;;;;;;;11.20;8.77;;;;;;;21.88;33.09;97578.56;342814;28;2009;-67
2022/04/24 00:07:11;;;;;;;11.63;8.95;;;;;;;21.89;33.22;97585.50;343516;28;1126;-69
2022/04/24 00:07:23;;;;;;;12.32;8.95;;;;;;;21.88;33.20;97583.84;343623;28;1071;-69
2022/04/24 00:07:35;;;;;;;12.48;9.13;;;;;;;21.89;33.30;97585.50;342919;28;2100;-69
2022/04/24 00:07:47;;;;;;;12.85;8.90;;;;;;;21.92;33.12;97579.03;343506;28;1800;-69
2022/04/24 00:07:59;;;;;;;14.02;8.88;;;;;;;21.89;33.30;97579.38;343572;28;1040;-69
2022/04/24 00:08:11;;;;;;;13.45;8.60;;;;;;;21.88;33.40;97578.56;342207;28;1238;-68
2022/04/24 00:08:23;;;;;;;12.45;8.93;;;;;;;21.88;33.23;97583.84;340565;29;1052;-68
2022/04/24 00:08:35;;;;;;;11.40;8.90;;;;;;;21.87;33.14;97578.72;340788;29;1200;-69
2022/04/24 00:08:47;;;;;;;11.85;9.00;;;;;;;21.86;33.43;97580.56;340266;28;2464;-69
2022/04/24 00:08:59;;;;;;;12.23;9.32;;;;;;;21.86;33.25;97580.56;341613;28;2087;-68
2022/04/24 00:09:11;;;;;;;12.60;9.45;;;;;;;21.85;33.29;97581.56;342134;28;1270;-68
2022/04/24 00:09:23;;;;;;;12.48;9.48;;;;;;;21.82;33.33;97583.72;342097;28;1046;-67
2022/04/24 00:09:37;;;;;;;12.95;9.40;;;;;;;21.81;33.46;97580.25;342200;28;1306;-67
2022/04/24 00:09:49;;;;;;;12.57;9.23;;;;;;;21.87;33.57;97581.38;341547;28;1413;-69
2022/04/24 00:10:01;;;;;;;11.05;8.70;;;;;;;21.79;33.20;97581.41;341165;28;1664;-69
2022/04/24 00:10:13;;;;;;;11.15;8.85;;;;;;;21.78;33.40;97583.25;340763;29;1089;-68
2022/04/24 00:10:25;;;;;;;12.00;8.90;;;;;;;21.77;33.23;97581.56;341466;28;1465;-68
2022/04/24 00:10:38;;;;;;;12.40;8.93;;;;;;;21.80;33.25;97581.25;343397;28;1133;-69
2022/04/24 00:10:50;;;;;;;12.15;8.85;;;;;;;21.80;33.29;97581.25;343204;28;2416;-69
2022/04/24 00:11:02;;;;;;;12.13;9.00;;;;;;;21.80;33.61;97575.97;343227;28;1868;-69
2022/04/24 00:11:14;;;;;;;12.10;9.10;;;;;;;21.81;33.51;97582.91;343358;28;1224;-69
2022/04/24 00:11:26;;;;;;;12.45;9.38;;;;;;;21.94;33.27;97580.50;343497;28;1348;-69
2022/04/24 00:11:38;;;;;;;12.93;9.52;;;;;;;22.02;33.06;97581.47;343724;28;1028;-68
2022/04/24 00:11:51;;;;;;;12.70;9.38;;;;;;;22.05;33.19;97581.94;342714;28;2356;-69
2022/04/24 00:12:05;;;;;;;12.50;9.13;;;;;;;22.05;32.88;97583.75;343640;28;1569;-69
2022/04/24 00:12:18;;;;;;;12.32;8.98;;;;;;;22.01;33.23;97587.75;343611;28;1103;-68
2022/04/24 00:12:29;;;;;;;12.20;9.02;;;;;;;21.96;33.09;97575.06;343304;28;1306;-69
2022/04/24 00:12:44;;;;;;;11.98;9.30;;;;;;;21.97;33.23;97578.53;343710;28;1044;-69
2022/04/24 00:12:56;;;;;;;12.57;9.63;;;;;;;22.03;33.41;97578.63;342811;28;1695;-68
2022/04/24 00:13:08;;;;;;;13.20;9.77;;;;;;;21.94;33.51;97575.22;343438;28;1894;-68
2022/04/24 00:13:20;;;;;;;14.38;9.63;;;;;;;21.91;33.42;97583.53;343475;28;1962;-68
2022/04/24 00:13:38;;;;;;;13.38;9.48;;;;;;;21.89;33.47;97582.88;343436;28;1272;-68
2022/04/24 00:13:50;;;;;;;11.52;9.40;;;;;;;21.93;33.17;97576.25;343034;28;1516;-68
2022/04/24 00:14:07;;;;;;;11.05;9.00;;;;;;;21.89;33.29;97579.38;341857;28;1787;-68
2022/04/24 00:14:19;;;;;;;11.50;9.05;;;;;;;21.86;33.28;97580.56;343182;28;1844;-68
2022/04/24 00:14:31;;;;;;;12.32;9.32;;;;;;;21.86;33.36;97579.75;342426;28;1945;-67
2022/04/24 00:14:47;;;;;;;12.93;9.27;;;;;;;21.83;33.20;97574.78;342998;28;1661;-67
2022/04/24 00:14:59;;;;;;;12.05;8.85;;;;;;;21.82;33.31;97579.25;342631;28;1188;-70
2022/04/24 00:15:11;;;;;;;11.85;8.45;;;;;;;21.84;33.27;97577.25;342328;28;1060;-69
2022/04/24 00:15:23;;;;;;;10.93;8.20;;;;;;;21.78;33.24;97579.78;342640;28;1890;-70
2022/04/24 00:15:35;;;;;;;10.95;8.45;;;;;;;21.78;33.37;97572.66;343090;28;1719;-70
2022/04/24 00:15:47;;;;;;;10.73;8.70;;;;;;;21.79;33.30;97574.28;343394;28;1196;-70
2022/04/24 00:15:59;;;;;;;11.82;9.10;;;;;;;21.81;33.30;97582.06;343443;28;1758;-69
2022/04/24 00:16:11;;;;;;;12.35;9.52;;;;;;;21.80;33.37;97575.97;343726;28;1059;-70
2022/04/24 00:16:23;;;;;;;12.50;9.48;;;;;;;21.81;33.33;97577.63;343437;28;1080;-69
2022/04/24 00:16:36;;;;;;;11.98;9.27;;;;;;;21.82;33.46;97573.97;342298;28;1095;-71
2022/04/24 00:16:49;;;;;;;11.25;8.85;;;;;;;21.83;33.28;97570.34;342026;28;1143;-71
2022/04/24 00:17:01;;;;;;;12.13;9.00;;;;;;;21.80;33.68;97570.66;342250;28;1248;-69
2022/04/24 00:17:16;;;;;;;13.07;9.25;;;;;;;21.79;33.48;97571.66;342276;28;1092;-69
2022/04/24 00:17:28;;;;;;;12.57;9.35;;;;;;;21.79;33.47;97574.28;342643;28;1650;-70
2022/04/24 00:17:40;;;;;;;12.07;9.20;;;;;;;21.89;33.53;97568.78;343644;28;1243;-69
2022/04/24 00:17:52;;;;;;;11.82;9.18;;;;;;;21.82;33.65;97579.25;343496;28;1069;-69
2022/04/24 00:18:04;;;;;;;12.25;9.30;;;;;;;21.88;33.35;97569.81;341834;28;2832;-70
2022/04/24 00:18:16;;;;;;;12.82;9.48;;;;;;;21.90;33.32;97571.28;341909;28;3208;-70
2022/04/24 00:18:28;;;;;;;12.18;9.35;;;;;;;21.93;33.28;97570.09;341792;28;1501;-69
2022/04/24 00:18:40;;;;;;;12.75;9.63;;;;;;;21.93;33.04;97578.03;341848;28;6191;-71
2022/04/24 00:18:52;;;;;;;12.68;9.45;;;;;;;21.89;33.20;97574.94;341682;28;1410;-70
2022/04/24 00:19:10;;;;;;;12.38;9.25;;;;;;;21.92;33.45;97571.09;341551;28;1646;-68
2022/04/24 00:19:24;;;;;;;11.75;9.05;;;;;;;21.97;33.29;97575.88;342089;28;1758;-68
2022/04/24 00:19:36;;;;;;;11.60;9.27;;;;;;;21.97;33.39;97575.88;341563;28;1535;-68
2022/04/24 00:19:49;;;;;;;10.93;9.10;;;;;;;21.96;32.90;97575.06;341991;28;1865;-68
2022/04/24 00:20:01;;;;;;;10.70;8.95;;;;;;;21.97;33.34;97573.22;341742;28;1827;-70
2022/04/24 00:20:13;;;;;;;11.00;8.95;;;;;;;21.98;33.29;97574.88;341024;28;2101;-70
2022/04/24 00:20:25;;;;;;;11.45;9.25;;;;;;;21.97;33.50;97566.09;341925;28;1940;-70
2022/04/24 00:20:37;;;;;;;12.27;9.20;;;;;;;21.94;32.93;97572.56;343230;28;1848;-70
2022/04/24 00:20:49;;;;;;;12.60;9.13;;;;;;;21.92;33.16;97569.28;341660;28;1692;-71
2022/04/24 00:21:01;;;;;;;12.27;9.15;;;;;;;21.96;32.97;97571.59;341421;28;1834;-71
2022/04/24 00:21:13;;;;;;;11.48;9.13;;;;;;;21.98;33.07;97566.97;342128;28;1999;-71
2022/04/24 00:21:28;;;;;;;11.30;8.98;;;;;;;21.97;33.33;97570.59;341757;28;1380;-68
2022/04/24 00:21:40;;;;;;;12.38;9.23;;;;;;;21.88;33.09;97573.28;341929;28;960;-68
2022/04/24 00:21:52;;;;;;;12.60;9.30;;;;;;;21.89;33.43;97567.00;341334;28;1694;-68
2022/04/24 00:22:06;;;;;;;12.50;9.63;;;;;;;21.88;33.13;97567.97;341609;28;1714;-71
2022/04/24 00:22:18;;;;;;;12.25;9.45;;;;;;;21.88;33.06;97565.34;341936;28;1230;-70
2022/04/24 00:22:30;;;;;;;11.55;9.07;;;;;;;21.90;33.04;97571.28;341978;28;1326;-70
2022/04/24 00:22:41;;;;;;;11.07;8.80;;;;;;;21.79;33.36;97566.34;342046;28;1060;-71
2022/04/24 00:22:53;;;;;;;11.65;9.10;;;;;;;21.78;33.44;97566.56;342519;28;1201;-70
2022/04/24 00:23:06;;;;;;;11.73;9.50;;;;;;;21.76;33.31;97564.06;343288;28;1210;-70
2022/04/24 00:23:18;;;;;;;11.68;9.27;;;;;;;21.71;33.49;97566.41;342390;28;1862;-71
2022/04/24 00:23:30;;;;;;;12.73;9.48;;;;;;;21.72;33.71;97562.78;342634;28;1828;-71
2022/04/24 00:23:43;;;;;;;12.75;9.50;;;;;;;21.71;33.44;97569.03;342461;28;1707;-71
2022/04/24 00:23:55;;;;;;;12.82;9.38;;;;;;;21.72;33.48;97568.06;343070;28;1362;-68
2022/04/24 00:24:08;;;;;;;12.68;9.38;;;;;;;21.87;33.44;97573.44;342976;28;1296;-68
2022/04/24 00:24:24;;;;;;;12.88;9.82;;;;;;;21.80;33.62;97565.38;343384;28;1337;-68
2022/04/24 00:24:36;;;;;;;12.02;9.55;;;;;;;21.75;33.57;97567.69;341978;28;1248;-68
2022/04/24 00:24:49;;;;;;;12.20;9.55;;;;;;;21.74;33.35;97568.72;341723;28;1882;-68
2022/04/24 00:25:01;;;;;;;12.68;9.63;;;;;;;21.71;33.44;97567.25;343628;28;1560;-68
2022/04/24 00:25:13;;;;;;;13.05;9.32;;;;;;;21.71;33.44;97563.75;342715;28;1625;-71
2022/04/24 00:25:25;;;;;;;13.93;9.25;;;;;;;21.72;33.58;97563.59;343203;28;1757;-71
2022/04/24 00:25:37;;;;;;;13.95;9.23;;;;;;;21.73;33.54;97569.69;343345;28;1114;-70
2022/04/24 00:25:49;;;;;;;13.73;9.32;;;;;;;21.74;33.44;97566.06;342998;28;2131;-71
2022/04/24 00:26:01;;;;;;;12.85;9.45;;;;;;;21.73;33.51;97561.75;343230;28;1513;-67
2022/04/24 00:26:13;;;;;;;11.70;9.07;;;;;;;21.74;33.73;97552.84;343332;28;1181;-68
2022/04/24 00:26:25;;;;;;;11.52;9.00;;;;;;;21.69;33.56;97558.66;343470;28;1319;-68
2022/04/24 00:26:38;;;;;;;11.73;9.23;;;;;;;21.62;33.67;97557.69;343237;28;1170;-69
2022/04/24 00:26:51;;;;;;;12.05;9.20;;;;;;;21.64;33.69;97560.97;342779;28;1889;-68
2022/04/24 00:27:03;;;;;;;12.63;8.90;;;;;;;21.70;33.71;97564.75;343286;28;1798;-68
2022/04/24 00:27:15;;;;;;;12.77;9.00;;;;;;;21.77;33.52;97560.41;343200;28;2436;-68
2022/04/24 00:27:27;;;;;;;11.90;9.30;;;;;;;21.74;33.56;97551.00;341579;28;1740;-67
2022/04/24 00:27:39;;;;;;;12.73;9.55;;;;;;;21.72;33.66;97554.84;341960;28;1048;-67
2022/04/24 00:27:51;;;;;;;13.40;9.57;;;;;;;21.70;33.57;97565.59;341894;28;1342;-68
2022/04/24 00:28:03;;;;;;;13.35;9.52;;;;;;;21.67;33.79;97565.94;341938;28;1214;-68
2022/04/24 00:28:15;;;;;;;13.27;9.32;;;;;;;21.70;33.49;97562.13;342142;28;1074;-68
2022/04/24 00:28:28;;;;;;;12.73;9.20;;;;;;;21.70;33.56;97562.13;341685;28;1629;-68
2022/04/24 00:28:40;;;;;;;12.18;9.23;;;;;;;21.67;34.00;97565.09;341774;28;1254;-68
2022/04/24 00:28:52;;;;;;;12.52;9.55;;;;;;;21.70;33.73;97565.59;341467;28;2168;-70
2022/04/24 00:29:04;;;;;;;12.70;9.77;;;;;;;21.68;34.02;97562.28;341807;28;1767;-70
2022/04/24 00:29:16;;;;;;;12.45;9.43;;;;;;;21.67;33.58;97565.94;341894;28;1307;-71
2022/04/24 00:29:28;;;;;;;12.48;9.43;;;;;;;21.68;33.53;97561.47;342128;28;1942;-70
2022/04/24 00:29:40;;;;;;;13.32;9.75;;;;;;;21.64;33.82;97560.16;343243;28;1051;-70
2022/04/24 00:29:52;;;;;;;14.00;9.73;;;;;;;21.66;33.81;97564.28;342728;28;2315;-70
2022/04/24 00:30:05;;;;;;;14.27;9.70;;;;;;;21.68;33.49;97561.47;343008;28;1394;-70
2022/04/24 00:30:17;;;;;;;14.10;9.85;;;;;;;21.68;33.57;97562.28;342256;28;1237;-71
2022/04/24 00:30:29;;;;;;;13.45;9.90;;;;;;;21.70;33.30;97568.22;341999;28;1310;-71
2022/04/24 00:30:41;;;;;;;12.98;10.02;;;;;;;21.69;33.41;97565.75;343235;28;1481;-70
2022/04/24 00:30:53;;;;;;;13.05;9.95;;;;;;;21.69;33.72;97563.09;343419;28;1135;-70
2022/04/24 00:31:05;;;;;;;13.02;9.50;;;;;;;21.67;33.60;97559.81;342690;28;1891;-70
2022/04/24 00:31:17;;;;;;;12.77;9.20;;;;;;;21.68;33.56;97561.47;342906;28;1364;-70
2022/04/24 00:31:29;;;;;;;12.52;9.27;;;;;;;21.67;33.74;97557.16;343740;28;1277;-68
2022/04/24 00:31:41;;;;;;;11.95;9.27;;;;;;;21.67;33.91;97554.50;343236;28;1074;-68
2022/04/24 00:31:53;;;;;;;12.65;9.57;;;;;;;21.68;33.45;97558.81;340362;28;4693;-68
2022/04/24 00:32:06;;;;;;;13.50;9.80;;;;;;;21.67;33.65;97558.00;342366;28;3400;-69
2022/04/24 00:32:18;;;;;;;13.27;9.88;;;;;;;21.66;33.66;97550.25;342019;28;1046;-70
2022/04/24 00:32:30;;;;;;;13.07;9.70;;;;;;;21.66;33.79;97561.63;341070;28;2750;-69
2022/04/24 00:32:42;;;;;;;12.57;9.45;;;;;;;21.65;33.69;97556.50;341821;28;1158;-70
2022/04/24 00:32:54;;;;;;;11.40;9.00;;;;;;;21.64;33.78;97560.16;341930;28;1234;-70
2022/04/24 00:33:06;;;;;;;10.68;8.77;;;;;;;21.67;33.61;97557.16;341442;28;1870;-70
2022/04/24 00:33:18;;;;;;;11.45;9.02;;;;;;;21.64;33.53;97560.16;342005;28;1944;-69
2022/04/24 00:33:30;;;;;;;11.80;9.32;;;;;;;21.63;33.71;97553.22;341864;28;1256;-70
2022/04/24 00:33:42;;;;;;;12.38;9.65;;;;;;;21.64;33.63;97554.88;340687;29;1898;-70
2022/04/24 00:33:54;;;;;;;11.20;8.85;;;;;;;21.63;33.51;97553.22;340652;29;2739;-70
2022/04/24 00:34:06;;;;;;;11.23;8.82;;;;;;;21.62;33.82;97557.69;340607;29;1040;-70
2022/04/24 00:34:18;;;;;;;12.82;9.20;;;;;;;21.63;33.78;97558.50;340779;29;1147;-70
2022/04/24 00:34:30;;;;;;;13.10;9.38;;;;;;;21.65;33.60;97552.06;341594;28;1280;-70
2022/04/24 00:34:42;;;;;;;12.95;9.40;;;;;;;21.64;33.33;97552.22;342233;28;1044;-68
2022/04/24 00:34:54;;;;;;;11.98;9.10;;;;;;;21.60;33.58;97558.84;342070;28;1199;-68
2022/04/24 00:35:06;;;;;;;11.40;8.98;;;;;;;21.62;33.50;97547.09;341941;28;1683;-68
2022/04/24 00:35:18;;;;;;;11.40;8.90;;;;;;;21.58;33.75;97560.84;342704;28;1883;-68
2022/04/24 00:35:31;;;;;;;12.18;9.50;;;;;;;21.59;33.82;97559.84;341441;28;1304;-68
2022/04/24 00:35:43;;;;;;;12.02;9.38;;;;;;;21.58;33.49;97560.84;340849;29;1165;-68
2022/04/24 00:35:55;;;;;;;11.32;9.23;;;;;;;21.60;33.78;97564.16;341244;28;1013;-71
2022/04/24 00:36:07;;;;;;;11.43;9.25;;;;;;;21.60;33.72;97564.16;341444;28;1817;-70
2022/04/24 00:36:19;;;;;;;12.75;9.02;;;;;;;21.62;33.45;97551.59;342440;28;1084;-68
2022/04/24 00:36:31;;;;;;;13.15;9.20;;;;;;;21.64;33.52;97554.88;343239;28;1254;-68
2022/04/24 00:36:45;;;;;;;13.10;9.25;;;;;;;21.63;33.77;97556.72;343452;28;1210;-68
2022/04/24 00:36:57;;;;;;;11.98;9.13;;;;;;;21.63;33.39;97558.50;343398;28;1079;-68
2022/04/24 00:37:09;;;;;;;11.45;9.32;;;;;;;21.62;33.85;97556.88;343492;28;1023;-68
2022/04/24 00:37:21;;;;;;;11.90;9.18;;;;;;;21.62;33.75;97556.88;341897;28;1278;-68
2022/04/24 00:37:33;;;;;;;11.68;9.30;;;;;;;21.62;33.61;97555.03;341871;28;1153;-68
2022/04/24 00:37:45;;;;;;;12.07;9.40;;;;;;;21.58;33.72;97559.03;341983;28;1026;-71
2022/04/24 00:37:57;;;;;;;11.95;9.45;;;;;;;21.61;33.85;97565.78;341975;28;2766;-71
2022/04/24 00:38:10;;;;;;;11.65;9.10;;;;;;;21.62;34.01;97556.88;341961;28;1076;-70
2022/04/24 00:38:22;;;;;;;11.85;9.20;;;;;;;21.60;33.87;97561.50;342576;28;920;-70
2022/04/24 00:38:34;;;;;;;12.55;9.50;;;;;;;21.57;33.62;97559.19;342098;28;1286;-70
2022/04/24 00:38:46;;;;;;;12.52;9.35;;;;;;;21.54;33.57;97558.53;342377;28;1046;-70
2022/04/24 00:38:58;;;;;;;11.98;8.95;;;;;;;21.54;33.82;97560.38;342141;28;1051;-70
2022/04/24 00:39:10;;;;;;;11.13;8.57;;;;;;;21.54;33.88;97557.72;341963;28;1337;-71
2022/04/24 00:39:22;;;;;;;11.00;8.60;;;;;;;21.56;33.86;97555.72;342105;28;1048;-70
2022/04/24 00:39:34;;;;;;;11.52;8.93;;;;;;;21.58;33.63;97555.56;341902;28;1279;-71
2022/04/24 00:39:46;;;;;;;12.23;9.30;;;;;;;21.58;33.76;97555.56;341627;28;1682;-68
2022/04/24 00:39:58;;;;;;;13.77;9.48;;;;;;;21.56;33.65;97560.19;342107;28;1696;-68
2022/04/24 00:40:11;;;;;;;13.18;8.90;;;;;;;21.58;33.94;97560.84;342052;28;1197;-70
2022/04/24 00:40:23;;;;;;;13.25;9.27;;;;;;;21.53;33.95;97553.41;341761;28;1173;-70
2022/04/24 00:40:35;;;;;;;12.15;9.27;;;;;;;21.53;33.83;97559.53;342574;28;1106;-71
2022/04/24 00:40:47;;;;;;;13.45;9.07;;;;;;;21.45;33.89;97556.94;342749;28;2294;-70
2022/04/24 00:40:59;;;;;;;13.35;8.85;;;;;;;21.44;33.84;97555.28;343356;28;1476;-69
2022/04/24 00:41:14;;;;;;;12.18;8.90;;;;;;;21.43;33.99;97553.63;343753;28;1226;-69
2022/04/24 00:41:26;;;;;;;12.15;9.25;;;;;;;21.42;34.08;97557.22;343612;28;1223;-70
2022/04/24 00:41:51;;;;;;;11.95;9.70;;;;;;;21.46;33.85;97553.28;342175;28;1116;-70
2022/04/24 00:42:03;;;;;;;11.85;9.18;;;;;;;21.48;33.65;97556.56;341900;28;1043;-70
2022/04/24 00:42:16;;;;;;;12.88;9.50;;;;;;;21.50;33.89;97556.41;341938;28;1071;-71
2022/04/24 00:42:29;;;;;;;13.85;9.55;;;;;;;21.49;33.82;97557.38;341556;28;1266;-70
2022/04/24 00:42:41;;;;;;;12.38;8.60;;;;;;;21.50;33.63;97562.50;340750;29;1057;-70
2022/04/24 00:42:53;;;;;;;11.20;8.82;;;;;;;21.49;33.65;97552.94;340771;29;1066;-71
2022/04/24 00:43:06;;;;;;;12.02;9.15;;;;;;;21.51;33.62;97556.25;340996;28;1756;-71
2022/04/24 00:43:18;;;;;;;12.60;9.27;;;;;;;21.51;33.78;97555.41;342452;28;1098;-71
2022/04/24 00:43:32;;;;;;;12.88;9.30;;;;;;;21.53;33.88;97556.06;341202;28;1897;-68
2022/04/24 00:43:52;;;;;;;12.05;9.05;;;;;;;21.50;33.83;97549.31;341634;28;1066;-68
2022/04/24 00:44:04;;;;;;;12.18;9.27;;;;;;;21.52;33.65;97557.06;341908;28;1146;-70
2022/04/24 00:44:19;;;;;;;12.17;8.87;;;;;;;21.49;33.72;97552.94;342267;28;1070;-70
2022/04/24 00:44:32;;;;;;;12.55;9.07;;;;;;;21.44;33.69;97557.91;341310;28;1220;-70
2022/04/24 00:44:44;;;;;;;12.60;9.07;;;;;;;21.49;33.61;97552.09;341967;28;1073;-71
2022/04/24 00:44:56;;;;;;;13.38;9.25;;;;;;;21.46;33.63;97558.56;342149;28;1100;-71
2022/04/24 00:45:08;;;;;;;13.32;9.20;;;;;;;21.49;33.87;97557.38;342158;28;1524;-71
2022/04/24 00:45:20;;;;;;;12.98;8.82;;;;;;;21.47;33.50;97560.22;342181;28;1068;-71
2022/04/24 00:45:32;;;;;;;13.02;8.95;;;;;;;21.48;33.63;97556.56;341932;28;1404;-70
2022/04/24 00:45:45;;;;;;;13.60;9.00;;;;;;;21.50;33.66;97549.31;341504;28;1454;-70
2022/04/24 00:46:34;;;;;;;13.10;8.98;;;;;;;21.54;33.75;97550.59;342227;28;1123;-71
2022/04/24 00:47:10;;;;;;;13.25;8.98;;;;;;;21.59;33.62;97551.91;342256;28;1072;-71
2022/04/24 00:47:23;;;;;;;11.23;8.75;;;;;;;21.65;33.74;97551.22;342128;28;1023;-70
2022/04/24 00:47:35;;;;;;;11.45;8.63;;;;;;;21.51;33.68;97550.97;341900;28;1167;-70
2022/04/24 00:47:48;;;;;;;11.45;8.88;;;;;;;21.56;33.64;97547.78;342355;28;1297;-71
2022/04/24 00:48:00;;;;;;;12.05;8.50;;;;;;;21.60;33.54;97548.28;342338;28;1235;-68
2022/04/24 00:48:12;;;;;;;12.93;8.38;;;;;;;21.60;33.80;97545.66;342436;28;1978;-71
2022/04/24 00:48:44;;;;;;;12.15;9.13;;;;;;;21.62;33.64;97554.22;342885;28;1805;-70
2022/04/24 00:48:57;;;;;;;12.10;9.40;;;;;;;21.58;33.70;97555.56;342185;28;1197;-70
2022/04/24 00:49:12;;;;;;;12.32;9.65;;;;;;;21.57;33.52;97549.47;340870;29;1223;-70
2022/04/24 00:49:24;;;;;;;12.05;9.30;;;;;;;21.58;33.51;97555.56;340681;29;1033;-71
2022/04/24 00:49:36;;;;;;;11.55;8.80;;;;;;;21.58;33.54;97547.63;340891;29;1062;-69
2022/04/24 00:49:49;;;;;;;11.13;8.63;;;;;;;21.58;33.61;97556.38;340882;29;1072;-70
2022/04/24 00:50:01;;;;;;;11.25;8.55;;;;;;;21.59;33.61;97546.63;340596;28;2735;-68
2022/04/24 00:50:13;;;;;;;11.57;8.65;;;;;;;21.57;33.54;97549.47;340915;29;1073;-71
2022/04/24 00:50:28;;;;;;;12.00;8.60;;;;;;;21.56;33.74;97547.78;340738;28;1756;-68
2022/04/24 00:50:40;;;;;;;11.95;8.55;;;;;;;21.58;33.75;97550.28;341154;28;1802;-69
2022/04/24 00:50:52;;;;;;;11.82;8.73;;;;;;;21.59;33.83;97546.63;342236;28;1146;-71
2022/04/24 00:51:04;;;;;;;10.73;8.60;;;;;;;21.62;33.57;97556.88;342184;28;1240;-71
2022/04/24 00:51:16;;;;;;;11.05;8.75;;;;;;;21.63;33.41;97558.50;342224;28;1296;-70
2022/04/24 00:51:29;;;;;;;11.38;8.80;;;;;;;21.63;33.75;97554.06;342444;28;1338;-70
2022/04/24 00:51:42;;;;;;;11.00;8.65;;;;;;;21.58;33.52;97555.56;343187;28;1173;-69
2022/04/24 00:51:54;;;;;;;11.77;8.70;;;;;;;21.61;33.71;97556.06;342842;28;1729;-70
2022/04/24 00:52:07;;;;;;;12.48;8.57;;;;;;;21.63;33.40;97556.72;343081;28;1746;-70
2022/04/24 00:52:19;;;;;;;12.38;8.38;;;;;;;21.63;33.70;97554.06;343416;28;1201;-70
2022/04/24 00:52:32;;;;;;;12.25;8.50;;;;;;;21.61;33.74;97550.75;343522;28;1322;-71
2022/04/24 00:52:45;;;;;;;11.95;8.85;;;;;;;21.60;33.77;97550.94;343640;28;1078;-70
2022/04/24 00:52:57;;;;;;;11.15;8.60;;;;;;;21.59;33.61;97551.91;343437;28;1335;-70
2022/04/24 00:53:10;;;;;;;10.93;8.75;;;;;;;21.58;33.51;97555.56;343232;28;1114;-71
2022/04/24 00:53:22;;;;;;;11.30;8.88;;;;;;;21.54;33.49;97558.53;344186;28;1054;-70
2022/04/24 00:53:36;;;;;;;11.20;8.73;;;;;;;21.56;33.52;97562.84;343459;28;1387;-70
2022/04/24 00:53:48;;;;;;;11.45;8.77;;;;;;;21.54;33.95;97555.88;343348;28;1213;-68
2022/04/24 00:54:01;;;;;;;10.93;8.65;;;;;;;21.56;33.78;97546.97;343045;28;1271;-67
2022/04/24 00:54:13;;;;;;;11.75;8.88;;;;;;;21.58;33.86;97560.84;343486;28;1080;-68
2022/04/24 00:54:27;;;;;;;12.85;9.10;;;;;;;21.59;33.65;97559.84;343078;28;1847;-71
2022/04/24 00:54:40;;;;;;;12.70;9.35;;;;;;;21.60;33.71;97561.50;342146;28;1873;-71
2022/04/24 00:54:52;;;;;;;12.20;9.38;;;;;;;21.62;33.78;97556.88;342663;28;1897;-70
2022/04/24 00:55:06;;;;;;;11.73;8.88;;;;;;;21.63;33.52;97558.50;343376;28;1337;-70
2022/04/24 00:55:23;;;;;;;12.15;9.02;;;;;;;21.62;33.57;97552.41;343254;28;1962;-71
2022/04/24 00:55:36;;;;;;;11.57;9.07;;;;;;;21.58;33.64;97560.84;342330;28;1764;-71
2022/04/24 00:55:49;;;;;;;13.10;8.85;;;;;;;21.59;33.57;97559.84;342958;28;2112;-70
2022/04/24 00:56:03;;;;;;;14.10;9.30;;;;;;;21.57;33.61;97565.31;340589;29;1264;-70
2022/04/24 00:56:15;;;;;;;12.80;9.27;;;;;;;21.46;33.86;97558.56;340157;28;1738;-71
2022/04/24 00:56:31;;;;;;;13.40;9.40;;;;;;;21.41;34.08;97560.88;340835;28;1874;-70
2022/04/24 00:56:43;;;;;;;14.15;9.82;;;;;;;21.39;33.81;97562.03;341755;28;1330;-71
2022/04/24 00:56:55;;;;;;;12.82;9.65;;;;;;;21.41;33.98;97555.59;342014;28;1907;-71
2022/04/24 00:57:09;;;;;;;11.73;9.27;;;;;;;21.42;33.91;97557.22;341913;28;1079;-71
2022/04/24 00:57:21;;;;;;;11.30;9.10;;;;;;;21.46;34.04;97560.38;342133;28;1176;-70
2022/04/24 00:57:33;;;;;;;11.02;8.95;;;;;;;21.47;33.83;97560.22;341946;28;2017;-71
2022/04/24 00:57:46;;;;;;;11.82;9.20;;;;;;;21.48;33.95;97559.22;341104;28;2024;-71
2022/04/24 00:57:58;;;;;;;12.43;9.07;;;;;;;21.51;33.76;97564.19;341896;28;1961;-70
2022/04/24 00:58:10;;;;;;;12.98;9.32;;;;;;;21.48;33.81;97559.22;343591;28;1263;-70
2022/04/24 00:58:22;;;;;;;11.77;8.85;;;;;;;21.46;33.66;97552.47;342636;28;2207;-71
2022/04/24 00:58:35;;;;;;;11.05;8.82;;;;;;;21.48;33.92;97561.88;343406;28;2075;-71
2022/04/24 00:58:47;;;;;;;12.35;9.70;;;;;;;21.48;33.70;97561.88;343484;28;1078;-70
2022/04/24 00:59:01;;;;;;;11.85;9.32;;;;;;;21.50;33.63;97559.88;343280;28;1083;-70
2022/04/24 00:59:15;;;;;;;11.73;8.95;;;;;;;21.49;33.95;97558.25;343445;28;990;-70
2022/04/24 00:59:29;;;;;;;11.45;8.88;;;;;;;21.52;33.65;97554.41;343239;28;1657;-68
2022/04/24 00:59:42;;;;;;;10.77;8.85;;;;;;;21.53;33.72;97558.69;343430;28;1156;-68
2022/04/24 00:59:54;;;;;;;10.98;8.80;;;;;;;21.54;33.73;97557.72;343857;28;1061;-68
2022/04/24 01:00:07;;;;;;;11.45;8.98;;;;;;;21.54;33.81;97561.19;343445;28;1051;-71
2022/04/24 01:00:19;;;;;;;12.05;8.90;;;;;;;21.56;33.85;97554.91;343471;28;1063;-70
2022/04/24 01:00:31;;;;;;;13.50;8.88;;;;;;;21.57;33.86;97559.19;343579;28;1635;-70
2022/04/24 01:00:44;;;;;;;12.82;8.70;;;;;;;21.54;33.56;97555.06;343896;28;1039;-71
2022/04/24 01:00:57;;;;;;;13.13;9.27;;;;;;;21.57;33.66;97560.03;342657;28;1973;-70